This is the latest recevied weather packets stored in our database for station/object KC2BRB-1. If no packets are shown the sender has not sent any weather packets the latest 10 day(s).
| Time | Temp. | Humidity | Pressure | Rain* | Wind** | Luminosity | Snow |
|---|---|---|---|---|---|---|---|
| 1777902363 | 22.78° C | 68% | 1015.1 hPa | 0 mm | - | - | - |
| 1777902142 | 22.78° C | 68% | 1015.1 hPa | 0 mm | - | - | - |
| 1777901854 | 22.22° C | 72% | 1015.2 hPa | 0 mm | - | - | - |
| 1777901842 | 22.78° C | 68% | 1015.1 hPa | 0 mm | - | - | - |
| 1777901542 | 22.22° C | 72% | 1015.2 hPa | 0 mm | - | - | - |
| 1777901229 | 21.67° C | 72% | 1015.2 hPa | 0 mm | - | - | - |
| 1777900942 | 21.67° C | 72% | 1015.2 hPa | 0 mm | - | - | - |
| 1777900643 | 21.67° C | 72% | 1015.2 hPa | 0 mm | - | - | - |
| 1777900590 | 21.67° C | 72% | 1015.1 hPa | 0 mm | - | - | - |
| 1777900342 | 21.67° C | 72% | 1015.1 hPa | 0 mm | - | - | - |
| 1777900307 | 21.67° C | 72% | 1015.1 hPa | 0 mm | - | - | - |
| 1777900042 | 21.67° C | 72% | 1015.1 hPa | 0 mm | - | - | - |
| 1777899928 | 20.56° C | 76% | 1015 hPa | 0 mm | - | - | - |
| 1777899742 | 20.56° C | 76% | 1015 hPa | 0 mm | - | - | - |
| 1777899698 | 20.56° C | 76% | 1015 hPa | 0 mm | - | - | - |
| 1777899442 | 20.56° C | 76% | 1015 hPa | 0 mm | - | - | - |
| 1777899142 | 20.56° C | 76% | 1015 hPa | 0 mm | - | - | - |
| 1777898618 | 20° C | 76% | 1014.8 hPa | 0 mm | - | - | - |
| 1777898542 | 20° C | 76% | 1014.8 hPa | 0 mm | - | - | - |
| 1777898327 | 19.44° C | 78% | 1014.7 hPa | 0 mm | - | - | - |
| 1777898242 | 20° C | 76% | 1014.8 hPa | 0 mm | - | - | - |
| 1777897942 | 19.44° C | 78% | 1014.7 hPa | 0 mm | - | - | - |
| 1777897648 | 19.44° C | 79% | 1014.7 hPa | 0 mm | - | - | - |
| 1777897342 | 19.44° C | 79% | 1014.7 hPa | 0 mm | - | - | - |
| 1777897295 | 19.44° C | 79% | 1014.7 hPa | 0 mm | - | - | - |
* Rain latest hour (hover to see other rain measurements)
** Current wind speed in m/s (hover to see current wind gust speed)